Main page
METAR-TAF:

METAR-TAF

Airports :

Novosibirsk, Russia

Tolmachevo Airport

latitude: 55-01N, longitude: 082-38E, elevation: 111 m

Current weather observation

The report was made 25 minutes ago, at 13:30 UTC
Wind 8 kt from the South
Temperature 4°C
Humidity 70%
Pressure 1019 hPa
Visibility 10 km or more
no clouds below 1500 m and no cumulonimbus

METAR: UNNT 281330Z 17004MPS CAVOK 04/M01 Q1019 R25/120065 R34/120065 NOSIG RMK QFE754/1005

Time: 20:55 (13:55 UTC)

Forecast

The report was made 2 hours and 55 minutes ago, at 11:00 UTC
Forecast valid from 28 at 12 UTC to 29 at 12 UTC
Wind 12 kt from the South with gusts up to 27 kt
Visibility 10 km or more
Broken clouds at a height of 1500 ft, Cumulonimbus.

TAF: UNNT 281100Z 2812/2912 17006G14MPS 9999 BKN015CB

Weather observations and forecasts of more than 4000 airports (METAR and TAF reports).

The available stations are represented by yellow and red dots on the map.

Hover mouse over dot to see the name of the station.

Then click to see weather observations and forecasts.

To change the map : click on the green buttons with a black cross to zoom in, on the green button with a dash to zoom out, or on the green arrows for adjacent maps.


METAR-TAF: